Time;durP1;ratioP1;P1;durP2;ratioP2;P2;SDS_P1;SDS_P2;PMS_P1;PMS_P2;Temp;Humidity;BMP_temperature;BMP_pressure;BME280_temperature;BME280_humidity;BME280_pressure;Samples;Min_cycle;Max_cycle;Signal;HPM_P1;HPM_P2
2023/07/26 00:00:26;;;;;;;1.90;1.27;;;;;;;;;;5068920;28;20494;-83
2023/07/26 00:02:52;;;;;;;2.50;1.33;;;;;;;;;;5072968;28;20029;-86
2023/07/26 00:05:17;;;;;;;2.42;1.38;;;;;;;;;;5074216;28;20376;-85
2023/07/26 00:07:43;;;;;;;1.90;1.35;;;;;;;;;;5072899;28;20369;-86
2023/07/26 00:10:09;;;;;;;2.17;1.42;;;;;;;;;;5073105;28;20021;-87
2023/07/26 00:12:34;;;;;;;2.25;1.42;;;;;;;;;;5072617;28;20039;-84
2023/07/26 00:15:00;;;;;;;2.80;1.63;;;;;;;;;;5072726;28;20539;-88
2023/07/26 00:17:25;;;;;;;7.85;1.90;;;;;;;;;;5071436;28;20058;-88
2023/07/26 00:19:50;;;;;;;3.20;1.98;;;;;;;;;;5073552;28;20028;-85
2023/07/26 00:22:16;;;;;;;4.75;1.75;;;;;;;;;;5071327;28;20029;-88
2023/07/26 00:24:41;;;;;;;2.50;1.77;;;;;;;;;;5072703;28;20025;-86
2023/07/26 00:27:07;;;;;;;2.00;1.27;;;;;;;;;;5071471;28;20532;-85
2023/07/26 00:29:32;;;;;;;1.83;1.35;;;;;;;;;;5073113;28;20036;-83
2023/07/26 00:31:58;;;;;;;1.90;1.60;;;;;;;;;;5071231;28;20025;-82
2023/07/26 00:34:23;;;;;;;1.20;0.90;;;;;;;;;;5071281;28;20111;-86
2023/07/26 00:36:48;;;;;;;2.35;1.63;;;;;;;;;;5070641;28;20025;-82
2023/07/26 00:39:15;;;;;;;3.10;1.40;;;;;;;;;;5072002;28;20056;-85
2023/07/26 00:41:40;;;;;;;5.05;1.98;;;;;;;;;;5073153;28;20101;-85
2023/07/26 00:44:06;;;;;;;2.63;1.80;;;;;;;;;;5072046;28;20475;-85
2023/07/26 00:46:32;;;;;;;6.93;2.22;;;;;;;;;;5071333;28;20052;-87
2023/07/26 00:48:58;;;;;;;2.13;1.42;;;;;;;;;;5070830;28;20028;-84
2023/07/26 00:51:25;;;;;;;3.60;1.52;;;;;;;;;;5071226;28;20020;-85
2023/07/26 00:53:51;;;;;;;2.03;1.27;;;;;;;;;;5071604;28;20023;-84
2023/07/26 00:56:16;;;;;;;3.78;1.85;;;;;;;;;;5071539;28;20021;-85
2023/07/26 00:58:42;;;;;;;3.78;1.52;;;;;;;;;;5072960;28;20081;-84
2023/07/26 01:01:08;;;;;;;4.30;2.05;;;;;;;;;;5071456;28;20031;-88
2023/07/26 01:03:33;;;;;;;2.47;1.80;;;;;;;;;;5071789;28;20024;-87
2023/07/26 01:06:27;;;;;;;6.25;1.85;;;;;;;;;;5070406;28;20056;-86
2023/07/26 01:09:22;;;;;;;3.80;2.05;;;;;;;;;;5072073;28;20027;-87
2023/07/26 01:12:08;;;;;;;3.75;2.25;;;;;;;;;;5068503;28;20090;-86
2023/07/26 01:14:44;;;;;;;3.00;1.65;;;;;;;;;;5072374;28;20369;-84
2023/07/26 01:17:10;;;;;;;4.25;1.65;;;;;;;;;;5072027;28;20064;-87
2023/07/26 01:19:36;;;;;;;2.47;1.73;;;;;;;;;;5070456;28;20071;-86
2023/07/26 01:22:01;;;;;;;4.70;2.55;;;;;;;;;;5072507;28;20691;-85
2023/07/26 01:24:27;;;;;;;3.88;1.95;;;;;;;;;;5071748;28;20032;-85
2023/07/26 01:26:52;;;;;;;4.53;2.13;;;;;;;;;;5069927;28;20024;-85
2023/07/26 01:29:18;;;;;;;4.28;2.10;;;;;;;;;;5071931;28;20027;-81
2023/07/26 01:31:43;;;;;;;3.63;1.95;;;;;;;;;;5071412;28;20032;-83
2023/07/26 01:34:09;;;;;;;2.72;1.77;;;;;;;;;;5069332;28;20033;-85
2023/07/26 01:36:35;;;;;;;2.63;1.92;;;;;;;;;;5070364;28;20028;-84
2023/07/26 01:39:02;;;;;;;4.85;1.60;;;;;;;;;;5071038;28;20032;-85
2023/07/26 01:41:29;;;;;;;1.40;1.30;;;;;;;;;;5068562;28;20021;-86
2023/07/26 01:43:55;;;;;;;2.85;1.73;;;;;;;;;;5069984;28;20042;-85
2023/07/26 01:46:20;;;;;;;5.32;1.60;;;;;;;;;;5070830;28;20013;-84
2023/07/26 01:48:46;;;;;;;2.35;1.80;;;;;;;;;;5070374;28;20030;-84
2023/07/26 01:51:11;;;;;;;2.35;1.23;;;;;;;;;;5070378;28;20468;-84
2023/07/26 01:53:37;;;;;;;1.70;1.30;;;;;;;;;;5071197;28;20024;-86
2023/07/26 01:56:03;;;;;;;2.30;1.50;;;;;;;;;;5067559;28;20426;-84
2023/07/26 01:58:28;;;;;;;2.70;1.92;;;;;;;;;;5071070;28;20031;-84
2023/07/26 02:00:54;;;;;;;6.25;1.50;;;;;;;;;;5071345;28;20510;-84
2023/07/26 02:03:20;;;;;;;10.98;1.90;;;;;;;;;;5069068;28;20044;-85
2023/07/26 02:05:46;;;;;;;3.55;2.40;;;;;;;;;;5068901;28;20115;-86
2023/07/26 02:08:13;;;;;;;6.38;1.73;;;;;;;;;;5071401;28;20028;-84
2023/07/26 02:10:41;;;;;;;3.17;2.03;;;;;;;;;;5067922;28;20384;-84
2023/07/26 02:13:07;;;;;;;2.00;1.42;;;;;;;;;;5071352;28;20032;-83
2023/07/26 02:15:32;;;;;;;2.70;1.83;;;;;;;;;;5068575;28;20043;-84
2023/07/26 02:17:58;;;;;;;2.90;1.48;;;;;;;;;;5070753;28;20028;-86
2023/07/26 02:20:23;;;;;;;3.92;1.70;;;;;;;;;;5070057;28;20505;-84
2023/07/26 02:22:49;;;;;;;2.83;1.92;;;;;;;;;;5070579;28;20387;-85
2023/07/26 02:25:15;;;;;;;2.47;1.65;;;;;;;;;;5070042;28;20025;-84
2023/07/26 02:27:40;;;;;;;4.40;2.42;;;;;;;;;;5067491;28;20020;-82
2023/07/26 02:30:07;;;;;;;1.77;1.35;;;;;;;;;;5069027;28;20032;-82
2023/07/26 02:32:32;;;;;;;1.58;1.42;;;;;;;;;;5070625;28;20468;-82
2023/07/26 02:34:58;;;;;;;2.78;1.27;;;;;;;;;;5069868;28;20027;-83
2023/07/26 02:37:23;;;;;;;1.65;1.27;;;;;;;;;;5068219;28;20035;-87
2023/07/26 02:39:50;;;;;;;2.63;1.27;;;;;;;;;;5069453;28;20490;-87
2023/07/26 02:42:15;;;;;;;2.50;1.27;;;;;;;;;;5069699;28;20028;-86
2023/07/26 02:44:41;;;;;;;1.40;1.05;;;;;;;;;;5070722;28;20445;-84
2023/07/26 02:47:06;;;;;;;2.83;1.60;;;;;;;;;;5067865;28;20032;-85
2023/07/26 02:49:32;;;;;;;7.55;2.33;;;;;;;;;;5068741;28;20489;-85
2023/07/26 02:51:57;;;;;;;1.63;1.05;;;;;;;;;;5070478;28;20517;-84
2023/07/26 02:54:23;;;;;;;2.42;1.20;;;;;;;;;;5069545;28;20538;-85
2023/07/26 02:56:49;;;;;;;8.00;1.58;;;;;;;;;;5065475;28;20371;-85
2023/07/26 02:59:14;;;;;;;2.22;1.65;;;;;;;;;;5068659;28;20047;-82
2023/07/26 03:01:40;;;;;;;5.15;2.05;;;;;;;;;;5069952;28;20082;-83
2023/07/26 03:04:05;;;;;;;2.20;1.48;;;;;;;;;;5067302;28;20031;-82
2023/07/26 03:06:31;;;;;;;3.40;1.67;;;;;;;;;;5069694;28;20027;-84
2023/07/26 03:08:56;;;;;;;2.90;1.15;;;;;;;;;;5067169;28;20061;-84
2023/07/26 03:11:22;;;;;;;1.05;0.93;;;;;;;;;;5068289;28;20035;-83
2023/07/26 03:13:47;;;;;;;2.20;1.55;;;;;;;;;;5069950;28;20024;-84
2023/07/26 03:16:16;;;;;;;1.48;1.10;;;;;;;;;;5068575;28;20072;-84
2023/07/26 03:18:42;;;;;;;2.95;1.55;;;;;;;;;;5067355;28;20028;-83
2023/07/26 03:21:07;;;;;;;2.65;1.38;;;;;;;;;;5069037;28;20089;-83
2023/07/26 03:23:34;;;;;;;2.28;1.50;;;;;;;;;;5070426;28;20024;-83
2023/07/26 03:26:00;;;;;;;2.35;1.60;;;;;;;;;;5068530;28;20422;-86
2023/07/26 03:28:27;;;;;;;1.85;1.50;;;;;;;;;;5069821;28;20035;-86
2023/07/26 03:30:53;;;;;;;3.05;1.75;;;;;;;;;;5062589;28;20480;-87
2023/07/26 03:33:19;;;;;;;3.08;1.48;;;;;;;;;;5066368;28;20074;-83
2023/07/26 03:35:44;;;;;;;2.50;1.83;;;;;;;;;;5069488;28;20879;-85
2023/07/26 03:38:09;;;;;;;1.60;1.25;;;;;;;;;;5069128;28;20384;-87
2023/07/26 03:40:35;;;;;;;1.10;1.00;;;;;;;;;;5069602;28;20078;-85
2023/07/26 03:43:01;;;;;;;1.55;1.20;;;;;;;;;;5070199;28;20425;-85
2023/07/26 03:45:28;;;;;;;2.47;1.50;;;;;;;;;;5070556;28;20021;-85
2023/07/26 03:47:54;;;;;;;2.17;1.60;;;;;;;;;;5068098;28;20032;-84
2023/07/26 03:50:20;;;;;;;6.70;1.92;;;;;;;;;;5069118;28;20742;-86
2023/07/26 03:52:46;;;;;;;2.65;1.77;;;;;;;;;;5070475;28;20028;-86
2023/07/26 03:55:11;;;;;;;1.98;1.40;;;;;;;;;;5070307;28;20442;-85
2023/07/26 03:57:36;;;;;;;1.50;1.10;;;;;;;;;;5070398;28;20031;-87
2023/07/26 04:00:02;;;;;;;2.75;1.48;;;;;;;;;;5066188;28;20024;-87
2023/07/26 04:02:28;;;;;;;3.42;1.60;;;;;;;;;;5068280;28;20056;-86
2023/07/26 04:04:54;;;;;;;2.38;1.55;;;;;;;;;;5068630;28;20063;-86
2023/07/26 04:07:19;;;;;;;4.13;1.60;;;;;;;;;;5068789;28;20052;-87
2023/07/26 04:09:44;;;;;;;3.75;1.92;;;;;;;;;;5070164;28;20035;-88
2023/07/26 04:12:10;;;;;;;3.25;1.30;;;;;;;;;;5068586;28;20024;-91
2023/07/26 04:14:35;;;;;;;2.25;1.40;;;;;;;;;;5073628;28;20029;-87
2023/07/26 04:17:01;;;;;;;3.00;1.58;;;;;;;;;;5071239;28;20040;-83
2023/07/26 04:19:26;;;;;;;3.80;1.48;;;;;;;;;;5073832;28;20028;-83
2023/07/26 04:21:52;;;;;;;3.00;1.80;;;;;;;;;;5069025;28;20032;-85
2023/07/26 04:24:17;;;;;;;2.40;2.15;;;;;;;;;;5071791;28;20468;-84
2023/07/26 04:26:42;;;;;;;3.28;1.70;;;;;;;;;;5072446;28;20081;-86
2023/07/26 04:29:08;;;;;;;1.92;1.73;;;;;;;;;;5073089;28;20028;-86
2023/07/26 04:31:33;;;;;;;3.28;2.03;;;;;;;;;;5073497;28;20051;-84
2023/07/26 04:33:59;;;;;;;9.57;2.28;;;;;;;;;;5072077;28;20467;-86
2023/07/26 04:36:25;;;;;;;4.00;1.52;;;;;;;;;;5073014;28;20174;-87
2023/07/26 04:38:50;;;;;;;2.05;1.35;;;;;;;;;;5071929;28;20365;-86
2023/07/26 04:41:15;;;;;;;3.00;1.75;;;;;;;;;;5073331;28;20099;-88
2023/07/26 04:43:41;;;;;;;3.35;2.30;;;;;;;;;;5071834;28;20052;-79
2023/07/26 04:46:06;;;;;;;3.50;1.75;;;;;;;;;;5070877;28;20107;-79
2023/07/26 04:48:32;;;;;;;2.88;1.40;;;;;;;;;;5070713;28;20594;-79
2023/07/26 04:50:57;;;;;;;1.25;0.93;;;;;;;;;;5070497;28;20024;-80
2023/07/26 04:53:23;;;;;;;3.38;1.58;;;;;;;;;;5072591;28;20024;-80
2023/07/26 04:55:50;;;;;;;3.60;2.15;;;;;;;;;;5070020;28;20029;-81
2023/07/26 04:58:17;;;;;;;4.55;2.17;;;;;;;;;;5072197;28;20037;-81
2023/07/26 05:00:43;;;;;;;2.53;1.65;;;;;;;;;;5068333;28;20868;-81
2023/07/26 05:03:11;;;;;;;3.95;1.40;;;;;;;;;;5072845;28;20025;-80
2023/07/26 05:05:38;;;;;;;1.73;1.55;;;;;;;;;;5069618;28;20078;-81
2023/07/26 05:08:05;;;;;;;2.20;1.50;;;;;;;;;;5070985;28;20492;-81
2023/07/26 05:10:30;;;;;;;2.08;1.50;;;;;;;;;;5071706;28;20468;-81
2023/07/26 05:12:56;;;;;;;2.72;1.70;;;;;;;;;;5070454;28;20074;-81
2023/07/26 05:15:22;;;;;;;3.47;1.48;;;;;;;;;;5070386;28;20041;-81
2023/07/26 05:17:48;;;;;;;2.33;1.70;;;;;;;;;;5067562;28;20043;-80
2023/07/26 05:20:13;;;;;;;1.63;1.42;;;;;;;;;;5069844;28;20076;-79
2023/07/26 05:22:39;;;;;;;6.30;1.92;;;;;;;;;;5070285;28;20099;-81
2023/07/26 05:25:05;;;;;;;2.42;1.42;;;;;;;;;;5070028;28;20092;-79
2023/07/26 05:27:31;;;;;;;2.85;1.65;;;;;;;;;;5068338;28;20032;-79
2023/07/26 05:29:57;;;;;;;6.53;2.17;;;;;;;;;;5067557;28;20028;-79
2023/07/26 05:32:26;;;;;;;3.47;2.33;;;;;;;;;;5069614;28;20021;-80
2023/07/26 05:34:54;;;;;;;2.35;1.65;;;;;;;;;;5067238;28;20429;-79
2023/07/26 05:37:20;;;;;;;2.60;1.60;;;;;;;;;;5067318;28;20483;-79
2023/07/26 05:39:47;;;;;;;5.82;2.10;;;;;;;;;;5066121;28;20032;-79
2023/07/26 05:42:12;;;;;;;2.65;1.70;;;;;;;;;;5067736;28;20495;-80
2023/07/26 05:44:39;;;;;;;3.22;2.22;;;;;;;;;;5068744;28;20024;-79
2023/07/26 05:47:05;;;;;;;13.48;3.08;;;;;;;;;;5062891;28;20523;-79
2023/07/26 05:49:30;;;;;;;11.52;2.00;;;;;;;;;;5062853;28;20037;-79
2023/07/26 05:51:57;;;;;;;4.50;1.77;;;;;;;;;;5067201;28;20086;-79
2023/07/26 05:54:22;;;;;;;3.28;2.22;;;;;;;;;;5068984;28;20495;-79
2023/07/26 05:56:48;;;;;;;2.75;1.92;;;;;;;;;;5068462;28;20024;-77
2023/07/26 05:59:13;;;;;;;3.70;2.78;;;;;;;;;;5064621;28;20040;-77
2023/07/26 06:01:38;;;;;;;7.38;2.97;;;;;;;;;;5062545;28;20067;-78
2023/07/26 06:04:04;;;;;;;4.10;2.28;;;;;;;;;;5067518;28;20031;-77
2023/07/26 06:06:30;;;;;;;3.05;2.25;;;;;;;;;;5069573;28;20029;-77
2023/07/26 06:08:57;;;;;;;5.38;1.90;;;;;;;;;;5068023;28;20475;-78
2023/07/26 06:11:22;;;;;;;3.83;1.95;;;;;;;;;;5067528;28;20028;-79
2023/07/26 06:13:48;;;;;;;2.65;2.00;;;;;;;;;;5068876;28;20036;-79
2023/07/26 06:16:13;;;;;;;5.55;2.00;;;;;;;;;;5069584;28;20045;-78
2023/07/26 06:18:38;;;;;;;2.03;1.48;;;;;;;;;;5068968;28;20040;-78
2023/07/26 06:21:04;;;;;;;5.85;2.28;;;;;;;;;;5070270;28;20476;-80
2023/07/26 06:23:30;;;;;;;1.63;1.15;;;;;;;;;;5067508;28;20483;-79
2023/07/26 06:25:55;;;;;;;2.75;1.77;;;;;;;;;;5068576;28;20024;-79
2023/07/26 06:28:20;;;;;;;3.78;2.03;;;;;;;;;;5067395;28;20523;-79
2023/07/26 06:30:46;;;;;;;5.15;2.15;;;;;;;;;;5069876;28;20376;-79
2023/07/26 06:33:11;;;;;;;2.80;1.75;;;;;;;;;;5069301;28;20063;-79
2023/07/26 06:35:37;;;;;;;7.05;2.38;;;;;;;;;;5069077;28;20024;-80
2023/07/26 06:38:02;;;;;;;1.65;1.27;;;;;;;;;;5068970;28;20028;-79
2023/07/26 06:40:28;;;;;;;2.17;1.50;;;;;;;;;;5069216;28;20029;-79
2023/07/26 06:42:54;;;;;;;5.50;2.63;;;;;;;;;;5067549;28;20424;-79
2023/07/26 06:45:19;;;;;;;2.42;2.05;;;;;;;;;;5065063;28;20052;-78
2023/07/26 06:47:44;;;;;;;2.90;1.73;;;;;;;;;;5062176;28;20036;-78
2023/07/26 06:50:10;;;;;;;2.65;1.17;;;;;;;;;;5070004;28;20024;-78
2023/07/26 06:52:35;;;;;;;1.40;1.30;;;;;;;;;;5068126;28;20029;-78
2023/07/26 06:55:01;;;;;;;3.55;1.70;;;;;;;;;;5068421;28;20077;-78
2023/07/26 06:57:29;;;;;;;1.58;1.23;;;;;;;;;;5069971;28;20532;-80
2023/07/26 06:59:55;;;;;;;2.20;1.50;;;;;;;;;;5066368;28;20020;-78
2023/07/26 07:02:20;;;;;;;9.18;2.17;;;;;;;;;;5070074;28;20025;-80
2023/07/26 07:04:46;;;;;;;2.45;1.95;;;;;;;;;;5071059;28;20028;-78
2023/07/26 07:07:11;;;;;;;1.30;1.00;;;;;;;;;;5067412;28;20035;-78
2023/07/26 07:09:37;;;;;;;4.65;1.48;;;;;;;;;;5065636;28;20028;-78
2023/07/26 07:12:03;;;;;;;4.05;2.60;;;;;;;;;;5065880;28;20059;-79
2023/07/26 07:14:28;;;;;;;2.28;1.58;;;;;;;;;;5061805;28;20028;-78
2023/07/26 07:16:54;;;;;;;1.40;0.93;;;;;;;;;;5065316;28;20052;-80
2023/07/26 07:19:19;;;;;;;2.13;1.20;;;;;;;;;;5068421;28;20025;-80
2023/07/26 07:21:45;;;;;;;3.35;1.95;;;;;;;;;;5062464;28;20054;-79
2023/07/26 07:24:10;;;;;;;3.47;1.55;;;;;;;;;;5066089;28;20029;-80
2023/07/26 07:26:36;;;;;;;1.45;1.33;;;;;;;;;;5067547;28;20468;-85
2023/07/26 07:29:01;;;;;;;1.42;1.20;;;;;;;;;;5069980;28;20129;-78
2023/07/26 07:31:27;;;;;;;8.73;2.30;;;;;;;;;;5067950;28;20020;-80
2023/07/26 07:33:52;;;;;;;3.08;1.67;;;;;;;;;;5073871;28;20074;-79
2023/07/26 07:36:19;;;;;;;1.30;1.08;;;;;;;;;;5069174;28;20163;-79
2023/07/26 07:38:45;;;;;;;2.90;1.17;;;;;;;;;;5070301;28;20056;-79
2023/07/26 07:41:11;;;;;;;1.23;0.90;;;;;;;;;;5065928;28;20032;-79
2023/07/26 07:43:38;;;;;;;1.45;1.17;;;;;;;;;;5064424;28;20114;-79
2023/07/26 07:46:04;;;;;;;3.33;1.80;;;;;;;;;;5068047;28;20020;-80
2023/07/26 07:48:30;;;;;;;1.80;1.45;;;;;;;;;;5070305;28;20082;-80
2023/07/26 07:50:56;;;;;;;4.80;1.92;;;;;;;;;;5071888;28;20059;-78
2023/07/26 07:53:22;;;;;;;1.27;1.00;;;;;;;;;;5071386;28;20145;-80
2023/07/26 07:55:47;;;;;;;3.70;1.80;;;;;;;;;;5071468;28;20039;-79
2023/07/26 07:58:13;;;;;;;2.53;1.77;;;;;;;;;;5072334;28;20028;-79
2023/07/26 08:00:38;;;;;;;1.15;0.93;;;;;;;;;;5071314;28;20075;-80
2023/07/26 08:03:05;;;;;;;1.80;1.20;;;;;;;;;;5072481;28;20027;-79
2023/07/26 08:05:32;;;;;;;3.17;1.67;;;;;;;;;;5072647;28;20498;-80
2023/07/26 08:07:58;;;;;;;2.33;1.40;;;;;;;;;;5071844;28;20476;-79
2023/07/26 08:10:23;;;;;;;2.30;1.15;;;;;;;;;;5071352;28;20032;-83
2023/07/26 08:12:49;;;;;;;4.85;1.38;;;;;;;;;;5071155;28;20079;-85
2023/07/26 08:15:14;;;;;;;1.35;1.17;;;;;;;;;;5070018;28;20037;-83
2023/07/26 08:17:40;;;;;;;2.88;1.58;;;;;;;;;;5073871;28;20071;-83
2023/07/26 08:20:06;;;;;;;2.95;1.65;;;;;;;;;;5070078;28;20506;-84
2023/07/26 08:22:32;;;;;;;2.40;0.93;;;;;;;;;;5071105;28;20109;-85
2023/07/26 08:24:57;;;;;;;6.03;1.60;;;;;;;;;;5073068;28;20028;-85
2023/07/26 08:27:23;;;;;;;1.20;0.90;;;;;;;;;;5073735;28;20024;-85
2023/07/26 08:29:48;;;;;;;2.28;1.40;;;;;;;;;;5072125;28;20029;-85
2023/07/26 08:32:14;;;;;;;3.17;1.48;;;;;;;;;;5071411;28;20036;-85
2023/07/26 08:34:39;;;;;;;3.08;1.52;;;;;;;;;;5073761;28;20491;-85
2023/07/26 08:37:05;;;;;;;1.65;1.20;;;;;;;;;;5071959;28;20120;-85
2023/07/26 08:39:30;;;;;;;4.90;1.20;;;;;;;;;;5070006;28;20040;-83
2023/07/26 08:41:56;;;;;;;4.68;1.90;;;;;;;;;;5071263;28;20032;-85
2023/07/26 08:44:24;;;;;;;0.95;0.68;;;;;;;;;;5071566;28;20515;-82
2023/07/26 08:46:51;;;;;;;2.10;1.45;;;;;;;;;;5072331;28;20020;-83
2023/07/26 08:49:16;;;;;;;3.05;1.30;;;;;;;;;;5070798;28;20038;-82
2023/07/26 08:51:43;;;;;;;3.60;1.35;;;;;;;;;;5072249;28;20103;-85
2023/07/26 08:54:09;;;;;;;3.30;1.70;;;;;;;;;;5103803;28;20098;-84
2023/07/26 08:56:35;;;;;;;2.33;1.27;;;;;;;;;;5071037;28;20035;-84
2023/07/26 08:59:00;;;;;;;1.88;0.90;;;;;;;;;;5072084;28;20396;-88
2023/07/26 09:01:27;;;;;;;2.75;1.25;;;;;;;;;;5072602;28;20058;-84
2023/07/26 09:03:53;;;;;;;3.50;1.20;;;;;;;;;;5069308;28;20070;-84
2023/07/26 09:06:19;;;;;;;0.75;0.60;;;;;;;;;;5072153;28;20056;-86
2023/07/26 09:08:44;;;;;;;1.35;0.88;;;;;;;;;;5071191;28;20070;-83
2023/07/26 09:11:23;;;;;;;2.05;1.08;;;;;;;;;;5071574;28;20031;-85
2023/07/26 09:13:56;;;;;;;2.42;0.63;;;;;;;;;;5070426;28;20040;-85
2023/07/26 09:16:26;;;;;;;5.57;0.95;;;;;;;;;;5069842;28;20064;-82
2023/07/26 09:19:04;;;;;;;1.40;1.02;;;;;;;;;;5070085;28;20024;-84
2023/07/26 09:21:36;;;;;;;2.65;1.30;;;;;;;;;;5072060;28;20099;-86
2023/07/26 09:24:03;;;;;;;1.90;1.25;;;;;;;;;;5070688;28;20147;-87
2023/07/26 09:26:40;;;;;;;1.75;1.13;;;;;;;;;;5071677;28;20078;-89
2023/07/26 09:29:08;;;;;;;1.75;1.25;;;;;;;;;;5069589;28;20032;-85
2023/07/26 09:31:35;;;;;;;1.90;0.93;;;;;;;;;;5071248;28;20027;-85
2023/07/26 09:34:06;;;;;;;3.40;1.48;;;;;;;;;;5069700;28;20526;-86
2023/07/26 09:36:49;;;;;;;1.15;0.88;;;;;;;;;;5070995;28;20468;-84
2023/07/26 09:39:16;;;;;;;1.20;1.10;;;;;;;;;;5072061;28;20427;-85
2023/07/26 09:41:42;;;;;;;3.33;1.35;;;;;;;;;;5071402;28;20024;-85
2023/07/26 09:44:15;;;;;;;4.57;1.17;;;;;;;;;;5071077;28;20070;-86
2023/07/26 09:46:48;;;;;;;0.88;0.73;;;;;;;;;;5071364;28;20074;-88
2023/07/26 09:49:14;;;;;;;2.05;0.80;;;;;;;;;;5071556;28;20048;-84
2023/07/26 09:51:41;;;;;;;1.63;1.10;;;;;;;;;;5069001;28;20032;-85
2023/07/26 09:54:08;;;;;;;4.47;1.52;;;;;;;;;;5070611;28;20020;-85
2023/07/26 09:56:34;;;;;;;0.90;0.70;;;;;;;;;;5069797;28;20024;-85
2023/07/26 09:59:00;;;;;;;0.85;0.70;;;;;;;;;;5071139;28;20098;-84
2023/07/26 10:01:29;;;;;;;2.80;1.05;;;;;;;;;;5070263;28;20035;-84
2023/07/26 10:03:59;;;;;;;3.05;0.98;;;;;;;;;;5069001;28;20054;-85
2023/07/26 10:06:29;;;;;;;2.08;1.05;;;;;;;;;;5070111;28;20029;-85
2023/07/26 10:08:55;;;;;;;;;;;;;;;;;;5070671;28;20029;-85
2023/07/26 10:11:21;;;;;;;1.67;1.00;;;;;;;;;;5070582;28;19916;-85
2023/07/26 10:13:49;;;;;;;3.20;1.67;;;;;;;;;;5069450;28;20424;-83
2023/07/26 10:16:15;;;;;;;1.25;0.93;;;;;;;;;;5071013;28;20044;-84
2023/07/26 10:18:41;;;;;;;1.65;1.40;;;;;;;;;;5068182;28;20145;-84
2023/07/26 10:21:09;;;;;;;1.48;0.85;;;;;;;;;;5070149;28;20021;-87
2023/07/26 10:23:34;;;;;;;0.50;0.50;;;;;;;;;;5071066;28;20032;-84
2023/07/26 10:26:04;;;;;;;1.25;1.02;;;;;;;;;;5069480;28;20032;-84
2023/07/26 10:28:33;;;;;;;2.10;1.35;;;;;;;;;;5070949;28;20025;-85
2023/07/26 10:31:00;;;;;;;1.02;0.88;;;;;;;;;;5069960;28;20028;-84
2023/07/26 10:33:27;;;;;;;2.72;1.20;;;;;;;;;;5069745;28;20487;-84
2023/07/26 10:35:54;;;;;;;2.60;1.33;;;;;;;;;;5070981;28;20027;-83
2023/07/26 10:38:19;;;;;;;3.95;1.38;;;;;;;;;;5070426;28;20380;-84
2023/07/26 10:40:45;;;;;;;1.40;0.85;;;;;;;;;;5070196;28;20032;-83
2023/07/26 10:43:19;;;;;;;2.17;1.40;;;;;;;;;;5071009;28;20237;-84
2023/07/26 10:45:47;;;;;;;1.15;0.75;;;;;;;;;;5070839;28;20423;-84
2023/07/26 10:48:32;;;;;;;2.03;1.35;;;;;;;;;;5069665;28;20476;-86
2023/07/26 10:50:58;;;;;;;6.72;1.40;;;;;;;;;;5068846;28;20035;-85
2023/07/26 10:53:28;;;;;;;5.68;0.98;;;;;;;;;;5070404;28;20388;-83
2023/07/26 10:56:09;;;;;;;0.75;0.60;;;;;;;;;;5069597;28;21196;-85
2023/07/26 10:58:34;;;;;;;1.02;0.93;;;;;;;;;;5071093;28;20484;-84
2023/07/26 11:01:03;;;;;;;1.05;0.82;;;;;;;;;;5070939;28;20107;-83
2023/07/26 11:03:29;;;;;;;;;;;;;;;;;;5070470;28;20074;-85
2023/07/26 11:05:56;;;;;;;4.68;1.48;;;;;;;;;;5069160;28;19959;-80
2023/07/26 11:08:39;;;;;;;1.88;1.05;;;;;;;;;;5069819;28;20039;-84
2023/07/26 11:11:05;;;;;;;2.90;1.25;;;;;;;;;;5069659;28;20032;-82
2023/07/26 11:13:32;;;;;;;1.92;1.23;;;;;;;;;;5069894;28;20048;-84
2023/07/26 11:16:01;;;;;;;3.08;1.27;;;;;;;;;;5069329;28;20044;-86
2023/07/26 11:18:26;;;;;;;1.40;1.05;;;;;;;;;;5070432;28;20055;-85
2023/07/26 11:20:53;;;;;;;2.25;1.08;;;;;;;;;;5063956;28;20028;-86
2023/07/26 11:23:28;;;;;;;1.73;1.30;;;;;;;;;;5070207;28;20021;-85
2023/07/26 11:26:03;;;;;;;5.00;1.55;;;;;;;;;;5071981;28;20022;-85
2023/07/26 11:28:32;;;;;;;1.55;0.80;;;;;;;;;;5072300;28;20032;-85
2023/07/26 11:30:59;;;;;;;2.30;1.15;;;;;;;;;;5070881;28;20442;-86
2023/07/26 11:33:35;;;;;;;1.05;0.90;;;;;;;;;;5074179;28;20024;-84
2023/07/26 11:36:03;;;;;;;1.08;0.95;;;;;;;;;;5072715;28;20036;-85
2023/07/26 11:38:29;;;;;;;1.80;1.08;;;;;;;;;;5073767;28;20043;-85
2023/07/26 11:40:58;;;;;;;2.08;1.10;;;;;;;;;;5073620;28;20487;-85
2023/07/26 11:43:25;;;;;;;2.25;0.95;;;;;;;;;;5072679;28;20081;-84
2023/07/26 11:45:52;;;;;;;4.93;1.10;;;;;;;;;;5074223;28;20107;-86
2023/07/26 11:48:18;;;;;;;2.90;1.40;;;;;;;;;;5072856;28;20052;-88
2023/07/26 11:50:43;;;;;;;2.20;1.23;;;;;;;;;;5073776;28;20043;-85
2023/07/26 11:53:12;;;;;;;2.65;1.52;;;;;;;;;;5071195;28;20381;-86
2023/07/26 11:55:39;;;;;;;2.72;1.80;;;;;;;;;;5071931;28;20464;-83
2023/07/26 11:58:08;;;;;;;2.92;1.40;;;;;;;;;;5072508;28;20044;-84
2023/07/26 12:00:36;;;;;;;1.35;0.90;;;;;;;;;;5069838;28;20571;-84
2023/07/26 12:03:04;;;;;;;1.13;0.98;;;;;;;;;;5070155;28;20142;-85
2023/07/26 12:05:30;;;;;;;1.33;1.05;;;;;;;;;;5071179;28;20051;-85
2023/07/26 12:08:00;;;;;;;3.75;1.10;;;;;;;;;;5072102;28;20500;-84
2023/07/26 12:10:33;;;;;;;2.35;1.02;;;;;;;;;;5073854;28;20028;-84
2023/07/26 12:13:00;;;;;;;1.10;0.95;;;;;;;;;;5069840;28;20081;-82
2023/07/26 12:15:26;;;;;;;2.55;1.42;;;;;;;;;;5071072;28;20048;-84
2023/07/26 12:18:03;;;;;;;3.90;1.35;;;;;;;;;;5070173;28;20064;-83
2023/07/26 12:20:30;;;;;;;1.33;1.02;;;;;;;;;;5072592;28;20426;-86
2023/07/26 12:22:58;;;;;;;2.70;1.00;;;;;;;;;;5071843;28;20085;-87
2023/07/26 12:25:38;;;;;;;2.00;1.23;;;;;;;;;;5072072;28;20036;-84
2023/07/26 12:28:07;;;;;;;2.17;1.02;;;;;;;;;;5070927;28;20029;-85
2023/07/26 12:30:34;;;;;;;1.48;1.10;;;;;;;;;;5071889;28;20376;-85
2023/07/26 12:33:11;;;;;;;1.10;0.80;;;;;;;;;;5084784;28;20032;-83
2023/07/26 12:35:36;;;;;;;4.40;1.10;;;;;;;;;;5069519;28;20039;-84
2023/07/26 12:38:13;;;;;;;1.58;0.90;;;;;;;;;;5071524;28;20024;-84
2023/07/26 12:40:39;;;;;;;2.03;1.10;;;;;;;;;;5070620;28;20109;-83
2023/07/26 12:43:23;;;;;;;1.25;1.00;;;;;;;;;;5072441;28;20102;-85
2023/07/26 12:45:49;;;;;;;2.33;1.30;;;;;;;;;;5072583;28;20028;-86
2023/07/26 12:48:14;;;;;;;3.28;1.10;;;;;;;;;;5072981;28;20028;-85
2023/07/26 12:50:40;;;;;;;3.08;1.25;;;;;;;;;;5071944;28;20063;-86
2023/07/26 12:53:09;;;;;;;1.20;0.93;;;;;;;;;;5072016;28;20476;-85
2023/07/26 12:55:39;;;;;;;2.30;1.27;;;;;;;;;;5072243;28;20383;-85
2023/07/26 12:58:06;;;;;;;2.05;1.15;;;;;;;;;;5073200;28;20111;-85
2023/07/26 13:00:32;;;;;;;3.38;1.30;;;;;;;;;;5072824;28;20464;-86
2023/07/26 13:02:57;;;;;;;1.70;1.25;;;;;;;;;;5070555;28;20032;-86
2023/07/26 13:05:23;;;;;;;2.80;1.08;;;;;;;;;;5072114;28;20029;-86
2023/07/26 13:07:52;;;;;;;3.10;1.40;;;;;;;;;;5071360;28;20032;-85
2023/07/26 13:10:19;;;;;;;1.40;1.10;;;;;;;;;;5070950;28;20494;-87
2023/07/26 13:12:45;;;;;;;2.30;1.08;;;;;;;;;;5072774;28;20028;-83
2023/07/26 13:15:10;;;;;;;0.88;0.88;;;;;;;;;;5071330;28;20387;-86
2023/07/26 13:17:36;;;;;;;1.23;0.90;;;;;;;;;;5071463;28;20041;-87
2023/07/26 13:20:02;;;;;;;1.55;1.00;;;;;;;;;;5072421;28;20024;-85
2023/07/26 13:22:29;;;;;;;3.83;1.13;;;;;;;;;;5072364;28;20103;-86
2023/07/26 13:24:54;;;;;;;1.73;1.08;;;;;;;;;;5069383;28;20020;-85
2023/07/26 13:27:21;;;;;;;3.03;1.48;;;;;;;;;;5071851;28;20074;-84
2023/07/26 13:29:46;;;;;;;1.95;0.90;;;;;;;;;;5072027;28;20110;-83
2023/07/26 13:32:12;;;;;;;2.00;1.08;;;;;;;;;;5072190;28;20051;-87
2023/07/26 13:34:38;;;;;;;1.80;1.10;;;;;;;;;;5067818;28;20085;-83
2023/07/26 13:37:04;;;;;;;1.75;1.05;;;;;;;;;;5070942;28;20032;-87
2023/07/26 13:39:30;;;;;;;3.42;1.20;;;;;;;;;;5071073;28;20025;-85
2023/07/26 13:41:55;;;;;;;1.33;0.90;;;;;;;;;;5070428;28;20108;-85
2023/07/26 13:44:21;;;;;;;3.85;1.33;;;;;;;;;;5071164;28;20460;-83
2023/07/26 13:46:46;;;;;;;1.05;0.82;;;;;;;;;;5070931;28;20020;-87
2023/07/26 13:49:12;;;;;;;1.98;0.85;;;;;;;;;;5069553;28;20020;-85
2023/07/26 13:51:38;;;;;;;1.25;1.10;;;;;;;;;;5071481;28;20028;-85
2023/07/26 13:54:03;;;;;;;2.03;1.13;;;;;;;;;;5069747;28;20024;-84
2023/07/26 13:56:29;;;;;;;8.05;1.25;;;;;;;;;;5071393;28;20028;-85
2023/07/26 13:58:55;;;;;;;2.47;1.13;;;;;;;;;;5071592;28;20464;-86
2023/07/26 14:01:21;;;;;;;1.15;0.90;;;;;;;;;;5070706;28;20082;-83
2023/07/26 14:03:47;;;;;;;2.03;1.13;;;;;;;;;;5070857;28;20086;-84
2023/07/26 14:06:13;;;;;;;4.97;1.45;;;;;;;;;;5070761;28;20020;-82
2023/07/26 14:08:39;;;;;;;0.93;0.77;;;;;;;;;;5069586;28;20047;-85
2023/07/26 14:11:04;;;;;;;1.23;0.90;;;;;;;;;;5069948;28;20482;-85
2023/07/26 14:13:30;;;;;;;1.88;1.27;;;;;;;;;;5068303;28;20033;-85
2023/07/26 14:15:55;;;;;;;2.17;1.00;;;;;;;;;;5070828;28;20090;-87
2023/07/26 14:18:21;;;;;;;2.08;0.90;;;;;;;;;;5070791;28;20563;-86
2023/07/26 14:20:49;;;;;;;1.63;1.10;;;;;;;;;;5066663;28;20028;-85
2023/07/26 14:23:14;;;;;;;1.52;1.08;;;;;;;;;;5070521;28;20028;-85
2023/07/26 14:25:40;;;;;;;1.25;0.80;;;;;;;;;;5069485;28;20028;-85
2023/07/26 14:28:05;;;;;;;6.57;1.10;;;;;;;;;;5068475;28;20111;-88
2023/07/26 14:30:30;;;;;;;1.63;1.02;;;;;;;;;;5069480;28;20033;-85
2023/07/26 14:32:56;;;;;;;3.97;1.15;;;;;;;;;;5066853;28;20029;-83
2023/07/26 14:35:21;;;;;;;1.73;1.27;;;;;;;;;;5066637;28;20028;-83
2023/07/26 14:37:47;;;;;;;2.20;1.20;;;;;;;;;;5064210;28;20028;-83
2023/07/26 14:40:12;;;;;;;1.65;1.10;;;;;;;;;;5067748;28;20028;-84